createdAt,value
2023-03-26T00:01:58.393Z,7.37
2023-03-26T00:04:29.959Z,7.34
2023-03-26T00:07:01.811Z,7.36
2023-03-26T00:09:33.310Z,7.37
2023-03-26T00:12:05.177Z,7.36
2023-03-26T00:14:37.418Z,7.33
2023-03-26T00:17:09.265Z,7.42
2023-03-26T00:19:40.790Z,7.41
2023-03-26T00:22:14.015Z,7.36
2023-03-26T00:24:48.391Z,7.41
2023-03-26T00:27:20.233Z,7.42
2023-03-26T00:29:51.742Z,7.45
2023-03-26T00:32:28.196Z,7.46
2023-03-26T00:35:01.608Z,7.49
2023-03-26T00:37:34.169Z,7.46
2023-03-26T00:40:07.655Z,7.44
2023-03-26T00:42:39.510Z,7.44
2023-03-26T00:45:11.232Z,7.44
2023-03-26T00:47:43.808Z,7.39
2023-03-26T00:50:16.306Z,7.42
2023-03-26T00:52:48.284Z,7.41
2023-03-26T00:55:19.819Z,7.41
2023-03-26T00:57:51.346Z,7.39
2023-03-26T01:00:22.891Z,7.37
2023-03-26T01:02:55.788Z,7.36
2023-03-26T01:05:28.865Z,7.36
2023-03-26T01:08:00.414Z,7.35
2023-03-26T01:10:38.640Z,7.36
2023-03-26T01:13:10.522Z,7.45
2023-03-26T01:15:42.160Z,7.46
2023-03-26T01:18:14.417Z,7.33
2023-03-26T01:20:46.754Z,7.33
2023-03-26T01:23:19.781Z,7.25
2023-03-26T01:25:51.358Z,7.31
2023-03-26T01:28:23.418Z,7.15
2023-03-26T01:30:58.558Z,7.17
2023-03-26T01:33:34.225Z,7.13
2023-03-26T01:36:06.061Z,7.11
2023-03-26T01:38:37.935Z,7.13
2023-03-26T01:41:09.709Z,7.12
2023-03-26T01:43:41.571Z,7.15
2023-03-26T01:46:13.144Z,7.08
2023-03-26T01:48:45.038Z,7.12
2023-03-26T01:51:16.599Z,7.13
2023-03-26T01:53:48.511Z,7.15
2023-03-26T01:56:20.151Z,7.13
2023-03-26T01:58:51.983Z,7.00
2023-03-26T02:01:24.446Z,6.96
2023-03-26T02:03:56.174Z,6.93
2023-03-26T02:06:30.994Z,6.86
2023-03-26T02:09:02.981Z,6.82
2023-03-26T02:11:35.927Z,6.70
2023-03-26T02:14:07.724Z,6.54
2023-03-26T02:16:39.744Z,6.61
2023-03-26T02:19:15.903Z,6.57
2023-03-26T02:21:49.722Z,6.52
2023-03-26T02:24:21.218Z,6.47
2023-03-26T02:26:53.122Z,6.49
2023-03-26T02:29:26.971Z,6.41
2023-03-26T02:31:58.537Z,6.39
2023-03-26T02:34:30.310Z,6.34
2023-03-26T02:37:01.869Z,6.41
2023-03-26T02:39:33.410Z,6.43
2023-03-26T02:42:05.516Z,6.45
2023-03-26T02:44:40.123Z,6.47
2023-03-26T02:47:11.986Z,6.45
2023-03-26T02:49:43.594Z,6.47
2023-03-26T02:52:18.855Z,6.54
2023-03-26T02:54:50.483Z,6.56
2023-03-26T02:57:22.338Z,6.55
2023-03-26T02:59:53.897Z,6.51
2023-03-26T03:02:25.781Z,6.54
2023-03-26T03:05:01.567Z,6.57
2023-03-26T03:07:38.151Z,6.64
2023-03-26T03:10:10.023Z,6.63
2023-03-26T03:12:41.894Z,6.59
2023-03-26T03:15:13.386Z,6.65
2023-03-26T03:17:45.152Z,6.57
2023-03-26T03:20:16.838Z,6.63
2023-03-26T03:22:48.775Z,6.69
2023-03-26T03:25:22.204Z,6.68
2023-03-26T03:27:54.010Z,6.66
2023-03-26T03:30:25.709Z,6.70
2023-03-26T03:32:58.516Z,6.74
2023-03-26T03:35:30.068Z,6.66
2023-03-26T03:38:01.768Z,6.68
2023-03-26T03:40:33.425Z,6.66
2023-03-26T03:43:05.232Z,6.60
2023-03-26T03:45:36.772Z,6.62
2023-03-26T03:48:08.669Z,6.64
2023-03-26T03:50:40.587Z,6.64
2023-03-26T03:53:15.828Z,6.64
2023-03-26T03:55:56.820Z,6.66
2023-03-26T03:58:31.335Z,6.70
2023-03-26T04:01:03.013Z,6.68
2023-03-26T04:03:39.048Z,6.74
2023-03-26T04:06:11.114Z,6.70
2023-03-26T04:08:42.993Z,6.67
2023-03-26T04:11:14.552Z,6.66
2023-03-26T04:13:46.412Z,6.67
2023-03-26T04:16:18.032Z,6.75
2023-03-26T04:18:49.931Z,6.79
2023-03-26T04:21:21.496Z,6.72
2023-03-26T04:23:54.265Z,6.75
2023-03-26T04:26:25.802Z,6.70
2023-03-26T04:28:57.361Z,6.64
2023-03-26T04:31:31.989Z,6.72
2023-03-26T04:34:05.909Z,6.65
2023-03-26T04:36:37.404Z,6.70
2023-03-26T04:39:09.259Z,6.68
2023-03-26T04:41:40.739Z,6.66
2023-03-26T04:44:14.557Z,6.65
2023-03-26T04:46:46.169Z,6.64
2023-03-26T04:49:18.004Z,6.67
2023-03-26T04:51:49.511Z,6.70
2023-03-26T04:54:21.497Z,6.77
2023-03-26T04:56:53.121Z,6.81
2023-03-26T04:59:26.464Z,6.21
2023-03-26T05:01:59.868Z,6.77
2023-03-26T05:04:31.840Z,6.75
2023-03-26T05:07:03.373Z,6.75
2023-03-26T05:09:35.132Z,6.78
2023-03-26T05:12:06.663Z,6.72
2023-03-26T05:14:38.162Z,6.83
2023-03-26T05:17:10.927Z,6.85
2023-03-26T05:19:42.926Z,6.79
2023-03-26T05:22:14.453Z,6.84
2023-03-26T05:24:46.343Z,6.86
2023-03-26T05:27:20.151Z,6.92
2023-03-26T05:29:52.019Z,6.95
2023-03-26T05:35:32.076Z,6.94
2023-03-26T05:38:03.797Z,7.05
2023-03-26T05:40:35.329Z,7.14
2023-03-26T05:43:07.042Z,7.13
2023-03-26T05:45:38.537Z,7.13
2023-03-26T05:48:10.594Z,7.28
2023-03-26T05:50:42.125Z,7.41
2023-03-26T05:53:13.855Z,7.41
2023-03-26T05:55:50.528Z,7.34
2023-03-26T05:58:22.377Z,7.37
2023-03-26T06:00:57.080Z,7.35
2023-03-26T06:03:29.035Z,7.42
2023-03-26T06:06:00.644Z,7.50
2023-03-26T06:08:32.456Z,7.44
2023-03-26T06:11:03.974Z,7.50
2023-03-26T06:13:35.954Z,7.41
2023-03-26T06:16:07.541Z,7.58
2023-03-26T06:18:39.454Z,7.50
2023-03-26T06:21:11.329Z,7.42
2023-03-26T06:23:43.299Z,7.59
2023-03-26T06:26:14.818Z,7.51
2023-03-26T06:28:46.782Z,7.50
2023-03-26T06:31:19.235Z,7.70
2023-03-26T06:33:51.547Z,7.63
2023-03-26T06:36:23.121Z,7.66
2023-03-26T06:38:54.661Z,7.87
2023-03-26T06:41:26.154Z,7.81
2023-03-26T06:43:57.893Z,7.89
2023-03-26T06:46:29.513Z,8.15
2023-03-26T06:49:01.398Z,8.01
2023-03-26T06:51:33.100Z,8.35
2023-03-26T06:54:05.027Z,8.49
2023-03-26T06:56:36.546Z,8.41
2023-03-26T06:59:08.614Z,8.37
2023-03-26T07:01:40.407Z,8.38
2023-03-26T07:04:12.259Z,8.41
2023-03-26T07:06:43.777Z,8.87
2023-03-26T07:09:15.590Z,9.03
2023-03-26T07:11:47.110Z,8.95
2023-03-26T07:14:18.955Z,9.23
2023-03-26T07:16:50.781Z,9.55
2023-03-26T07:19:22.785Z,9.38
2023-03-26T07:21:54.285Z,9.33
2023-03-26T07:24:26.392Z,9.21
2023-03-26T07:26:57.899Z,9.07
2023-03-26T07:29:29.737Z,9.66
2023-03-26T07:32:01.266Z,9.67
2023-03-26T07:34:33.118Z,9.73
2023-03-26T07:37:04.603Z,9.99
2023-03-26T07:39:36.775Z,9.82
2023-03-26T07:42:08.351Z,9.15
2023-03-26T07:44:40.216Z,9.49
2023-03-26T07:47:11.742Z,9.30
2023-03-26T07:49:43.422Z,8.93
2023-03-26T07:52:15.307Z,8.99
2023-03-26T07:54:47.073Z,8.81
2023-03-26T07:57:18.614Z,8.99
2023-03-26T07:59:50.485Z,8.86
2023-03-26T08:02:21.984Z,9.27
2023-03-26T08:04:53.572Z,9.00
2023-03-26T08:07:25.189Z,9.02
2023-03-26T08:09:56.704Z,8.89
2023-03-26T08:12:28.234Z,8.90
2023-03-26T08:14:59.761Z,8.74
2023-03-26T08:17:31.563Z,8.71
2023-03-26T08:20:07.597Z,8.76
2023-03-26T08:22:41.005Z,8.48
2023-03-26T08:25:14.116Z,8.37
2023-03-26T08:27:46.081Z,8.47
2023-03-26T08:30:18.114Z,8.54
2023-03-26T08:32:49.707Z,8.56
2023-03-26T08:35:21.324Z,8.76
2023-03-26T08:37:53.236Z,8.74
2023-03-26T08:40:24.946Z,9.00
2023-03-26T08:42:56.514Z,9.05
2023-03-26T08:45:28.428Z,9.14
2023-03-26T08:48:01.800Z,9.03
2023-03-26T08:50:33.617Z,9.78
2023-03-26T08:53:05.110Z,10.06
2023-03-26T08:55:37.125Z,9.77
2023-03-26T08:58:08.963Z,9.83
2023-03-26T09:00:40.932Z,9.99
2023-03-26T09:03:12.468Z,9.64
2023-03-26T09:05:44.299Z,9.85
2023-03-26T09:08:15.903Z,9.65
2023-03-26T09:10:47.643Z,9.52
2023-03-26T09:13:19.210Z,9.16
2023-03-26T09:15:51.033Z,9.65
2023-03-26T09:18:22.556Z,9.68
2023-03-26T09:20:54.267Z,9.69
2023-03-26T09:23:26.027Z,10.11
2023-03-26T09:25:57.620Z,10.22
2023-03-26T09:28:29.131Z,10.38
2023-03-26T09:31:00.929Z,11.08
2023-03-26T09:33:32.522Z,11.49
2023-03-26T09:36:04.279Z,11.09
2023-03-26T09:38:35.848Z,10.29
2023-03-26T09:41:07.684Z,10.76
2023-03-26T09:43:39.199Z,11.09
2023-03-26T09:46:10.992Z,10.60
2023-03-26T09:48:42.544Z,10.70
2023-03-26T09:51:14.067Z,11.19
2023-03-26T09:53:45.778Z,11.73
2023-03-26T09:56:17.708Z,11.55
2023-03-26T09:58:49.341Z,11.18
2023-03-26T10:01:20.949Z,11.12
2023-03-26T10:03:52.933Z,10.61
2023-03-26T10:06:24.697Z,11.50
2023-03-26T10:08:56.706Z,11.65
2023-03-26T10:11:28.633Z,9.31
2023-03-26T10:14:00.318Z,11.08
2023-03-26T10:16:31.857Z,11.52
2023-03-26T10:19:04.800Z,11.25
2023-03-26T10:21:36.326Z,11.47
2023-03-26T10:24:07.874Z,11.38
2023-03-26T10:26:39.380Z,11.41
2023-03-26T10:29:11.528Z,11.20
2023-03-26T10:31:43.033Z,11.38
2023-03-26T10:34:28.556Z,11.66
2023-03-26T10:37:01.007Z,11.26
2023-03-26T10:39:37.681Z,11.74
2023-03-26T10:42:10.380Z,11.28
2023-03-26T10:44:43.880Z,11.13
2023-03-26T10:47:15.619Z,11.81
2023-03-26T10:49:50.126Z,11.89
2023-03-26T10:52:21.650Z,11.64
2023-03-26T10:54:53.171Z,11.97
2023-03-26T10:57:24.682Z,12.06
2023-03-26T10:59:56.364Z,11.47
2023-03-26T11:02:30.185Z,11.70
2023-03-26T11:05:02.524Z,11.83
2023-03-26T11:07:34.270Z,12.15
2023-03-26T11:10:06.554Z,12.23
2023-03-26T11:12:38.059Z,12.42
2023-03-26T11:15:09.936Z,12.20
2023-03-26T11:17:41.776Z,12.38
2023-03-26T11:20:13.706Z,12.22
2023-03-26T11:22:45.267Z,12.39
2023-03-26T11:25:17.064Z,12.68
2023-03-26T11:27:48.631Z,12.64
2023-03-26T11:30:20.505Z,12.58
2023-03-26T11:32:52.040Z,12.12
2023-03-26T11:35:40.180Z,12.06
2023-03-26T11:38:13.038Z,12.08
2023-03-26T11:40:49.204Z,12.04
2023-03-26T11:43:20.691Z,12.78
2023-03-26T11:45:54.028Z,12.56
2023-03-26T11:48:25.553Z,12.97
2023-03-26T11:50:57.331Z,13.03
2023-03-26T11:53:29.158Z,12.84
2023-03-26T11:56:01.227Z,12.40
2023-03-26T11:58:33.880Z,12.50
2023-03-26T12:01:05.733Z,13.34
2023-03-26T12:03:38.168Z,13.75
2023-03-26T12:06:11.451Z,13.79
2023-03-26T12:08:42.956Z,13.06
2023-03-26T12:11:14.825Z,13.18
2023-03-26T12:13:46.461Z,13.12
2023-03-26T12:16:18.358Z,13.66
2023-03-26T12:18:49.911Z,13.34
2023-03-26T12:21:21.777Z,13.88
2023-03-26T12:23:53.311Z,13.65
2023-03-26T12:26:25.288Z,14.99
2023-03-26T12:28:56.791Z,15.20
2023-03-26T12:31:30.428Z,15.25
2023-03-26T12:34:02.028Z,15.28
2023-03-26T12:36:34.006Z,15.99
2023-03-26T12:39:42.573Z,14.78
2023-03-26T12:43:51.506Z,14.99
2023-03-26T12:44:58.840Z,14.29
2023-03-26T12:48:01.145Z,14.79
2023-03-26T12:50:34.348Z,14.93
2023-03-26T12:53:06.821Z,14.87
2023-03-26T12:55:38.633Z,13.62
2023-03-26T12:58:13.801Z,13.93
2023-03-26T13:01:03.266Z,13.27
2023-03-26T13:03:34.823Z,13.67
2023-03-26T13:06:06.990Z,13.48
2023-03-26T13:08:39.503Z,13.35
2023-03-26T13:11:11.407Z,13.40
2023-03-26T13:13:44.111Z,13.82
2023-03-26T13:16:16.334Z,13.79
2023-03-26T13:18:48.243Z,13.84
2023-03-26T13:21:20.322Z,13.97
2023-03-26T13:23:51.859Z,13.57
2023-03-26T13:26:23.592Z,13.55
2023-03-26T13:28:55.147Z,13.51
2023-03-26T13:31:26.779Z,13.73
2023-03-26T13:33:58.303Z,14.32
2023-03-26T13:36:30.233Z,14.35
2023-03-26T13:39:03.545Z,14.33
2023-03-26T13:41:35.193Z,14.51
2023-03-26T13:44:06.764Z,13.92
2023-03-26T13:46:38.685Z,14.35
2023-03-26T13:49:10.623Z,14.91
2023-03-26T13:51:42.265Z,15.64
2023-03-26T13:54:13.775Z,16.22
2023-03-26T13:56:45.961Z,16.67
2023-03-26T13:59:17.512Z,17.02
2023-03-26T14:01:51.141Z,16.25
2023-03-26T14:04:22.964Z,15.73
2023-03-26T14:06:57.406Z,16.15
2023-03-26T14:09:29.182Z,15.94
2023-03-26T14:12:00.714Z,15.87
2023-03-26T14:14:32.221Z,15.66
2023-03-26T14:17:03.828Z,15.83
2023-03-26T14:19:36.030Z,15.67
2023-03-26T14:22:07.884Z,15.56
2023-03-26T14:24:39.411Z,14.42
2023-03-26T14:27:11.555Z,15.29
2023-03-26T14:29:57.171Z,15.54
2023-03-26T14:32:30.193Z,15.10
2023-03-26T14:35:01.770Z,14.97
2023-03-26T14:37:33.669Z,14.73
2023-03-26T14:40:15.118Z,14.70
2023-03-26T14:42:46.709Z,14.46
2023-03-26T14:45:18.525Z,14.28
2023-03-26T14:47:50.232Z,14.10
2023-03-26T14:50:22.534Z,14.36
2023-03-26T14:53:01.405Z,14.16
2023-03-26T14:55:33.464Z,13.82
2023-03-26T14:58:05.072Z,13.86
2023-03-26T15:00:39.204Z,13.47
2023-03-26T15:03:10.906Z,13.67
2023-03-26T15:05:42.847Z,13.81
2023-03-26T15:08:14.377Z,13.83
2023-03-26T15:10:47.212Z,14.00
2023-03-26T15:13:18.735Z,13.68
2023-03-26T15:15:54.035Z,13.57
2023-03-26T15:18:26.713Z,13.55
2023-03-26T15:20:58.398Z,13.45
2023-03-26T15:23:29.967Z,13.72
2023-03-26T15:26:01.526Z,13.59
2023-03-26T15:28:33.521Z,13.49
2023-03-26T15:31:06.939Z,13.13
2023-03-26T15:33:38.438Z,13.15
2023-03-26T15:36:10.416Z,13.30
2023-03-26T15:38:42.482Z,13.11
2023-03-26T15:41:17.745Z,13.14
2023-03-26T15:44:22.374Z,13.06
2023-03-26T15:46:41.256Z,12.96
2023-03-26T15:49:16.418Z,12.70
2023-03-26T15:51:49.685Z,12.60
2023-03-26T15:54:22.637Z,12.27
2023-03-26T15:56:54.701Z,12.18
2023-03-26T15:59:26.621Z,12.13
2023-03-26T16:02:03.050Z,12.00
2023-03-26T16:04:34.578Z,11.87
2023-03-26T16:07:09.434Z,11.20
2023-03-26T16:09:42.034Z,11.84
2023-03-26T16:12:14.879Z,11.76
2023-03-26T16:14:46.835Z,11.59
2023-03-26T16:17:18.819Z,11.62
2023-03-26T16:19:50.463Z,11.69
2023-03-26T16:22:22.410Z,11.77
2023-03-26T16:24:54.532Z,11.81
2023-03-26T16:27:26.378Z,11.80
2023-03-26T16:29:58.301Z,11.48
2023-03-26T16:32:30.243Z,11.50
2023-03-26T16:35:02.081Z,11.64
2023-03-26T16:37:37.310Z,11.52
2023-03-26T16:40:08.861Z,11.38
2023-03-26T16:42:40.944Z,11.14
2023-03-26T16:45:12.791Z,10.78
2023-03-26T16:47:44.362Z,10.72
2023-03-26T16:50:16.196Z,10.52
2023-03-26T16:52:48.170Z,10.47
2023-03-26T16:55:19.700Z,10.42
2023-03-26T16:57:51.616Z,10.30
2023-03-26T17:00:24.584Z,10.21
2023-03-26T17:02:57.006Z,10.23
2023-03-26T17:05:28.601Z,10.09
2023-03-26T17:08:01.334Z,10.07
2023-03-26T17:10:32.862Z,9.91
2023-03-26T17:13:04.814Z,9.82
2023-03-26T17:15:36.749Z,9.79
2023-03-26T17:18:08.626Z,9.76
2023-03-26T17:20:40.210Z,9.63
2023-03-26T17:23:12.106Z,9.61
2023-03-26T17:25:43.606Z,9.53
2023-03-26T17:28:15.548Z,9.59
2023-03-26T17:30:47.097Z,9.51
2023-03-26T17:33:19.014Z,9.47
2023-03-26T17:35:50.841Z,9.46
2023-03-26T17:38:23.180Z,9.45
2023-03-26T17:40:55.445Z,9.45
2023-03-26T17:43:27.475Z,9.46
2023-03-26T17:46:02.668Z,9.43
2023-03-26T17:48:35.816Z,9.40
2023-03-26T17:51:07.394Z,9.40
2023-03-26T17:53:38.988Z,9.34
2023-03-26T17:56:10.622Z,9.37
2023-03-26T17:58:42.654Z,9.29
2023-03-26T18:01:14.417Z,9.33
2023-03-26T18:03:46.454Z,9.30
2023-03-26T18:06:18.006Z,9.26
2023-03-26T18:08:49.547Z,9.26
2023-03-26T18:11:21.401Z,9.30
2023-03-26T18:13:52.945Z,9.33
2023-03-26T18:16:26.452Z,9.32
2023-03-26T18:18:58.907Z,9.27
2023-03-26T18:21:30.772Z,9.23
2023-03-26T18:24:02.664Z,9.27
2023-03-26T18:26:34.319Z,9.22
2023-03-26T18:29:05.844Z,9.21
2023-03-26T18:31:37.541Z,9.12
2023-03-26T18:34:11.346Z,9.08
2023-03-26T18:36:43.283Z,9.03
2023-03-26T18:39:14.795Z,9.02
2023-03-26T18:41:46.527Z,8.98
2023-03-26T18:44:18.142Z,8.96
2023-03-26T18:46:49.972Z,8.89
2023-03-26T18:49:21.571Z,8.90
2023-03-26T18:51:57.227Z,8.93
2023-03-26T18:54:29.141Z,8.87
2023-03-26T18:57:00.753Z,8.77
2023-03-26T18:59:32.592Z,8.73
2023-03-26T19:02:04.669Z,8.65
2023-03-26T19:04:37.220Z,8.64
2023-03-26T19:07:09.925Z,8.72
2023-03-26T19:09:41.439Z,8.69
2023-03-26T19:12:13.307Z,8.64
2023-03-26T19:14:44.805Z,8.55
2023-03-26T19:17:16.673Z,8.47
2023-03-26T19:19:48.166Z,8.33
2023-03-26T19:22:20.128Z,8.22
2023-03-26T19:24:51.888Z,8.22
2023-03-26T19:27:23.958Z,8.22
2023-03-26T19:29:55.446Z,8.24
2023-03-26T19:32:27.193Z,8.27
2023-03-26T19:34:58.737Z,8.18
2023-03-26T19:37:30.614Z,8.22
2023-03-26T19:40:06.340Z,8.24
2023-03-26T19:42:43.927Z,7.22
2023-03-26T19:45:16.402Z,8.16
2023-03-26T19:47:50.372Z,8.15
2023-03-26T19:50:26.281Z,8.15
2023-03-26T19:53:09.027Z,8.02
2023-03-26T19:55:46.809Z,8.02
2023-03-26T19:58:19.969Z,8.00
2023-03-26T20:00:51.480Z,7.94
2023-03-26T20:03:23.168Z,7.96
2023-03-26T20:05:54.735Z,7.98
2023-03-26T20:08:29.645Z,7.85
2023-03-26T20:11:01.393Z,7.84
2023-03-26T20:13:33.242Z,7.84
2023-03-26T20:16:05.517Z,7.74
2023-03-26T20:18:38.886Z,7.75
2023-03-26T20:21:10.393Z,5.97
2023-03-26T20:23:43.547Z,7.59
2023-03-26T20:26:15.103Z,7.44
2023-03-26T20:28:52.717Z,7.46
2023-03-26T20:31:25.207Z,7.19
2023-03-26T20:33:57.547Z,7.22
2023-03-26T20:36:32.984Z,7.11
2023-03-26T20:39:06.846Z,7.02
2023-03-26T20:41:38.912Z,6.97
2023-03-26T20:44:11.185Z,6.83
2023-03-26T20:46:43.204Z,6.70
2023-03-26T20:49:15.309Z,6.75
2023-03-26T20:51:47.664Z,6.75
2023-03-26T20:54:19.518Z,6.59
2023-03-26T20:56:51.078Z,6.62
2023-03-26T20:59:23.052Z,6.50
2023-03-26T21:01:54.710Z,6.43
2023-03-26T21:04:26.528Z,6.45
2023-03-26T21:07:07.347Z,6.50
2023-03-26T21:09:47.309Z,6.42
2023-03-26T21:12:19.026Z,6.45
2023-03-26T21:14:50.943Z,6.38
2023-03-26T21:17:22.465Z,6.37
2023-03-26T21:19:54.656Z,6.38
2023-03-26T21:22:26.622Z,6.34
2023-03-26T21:24:58.284Z,6.30
2023-03-26T21:27:30.286Z,6.34
2023-03-26T21:30:01.869Z,6.35
2023-03-26T21:32:34.408Z,6.32
2023-03-26T21:35:05.941Z,6.32
2023-03-26T21:37:39.624Z,6.35
2023-03-26T21:40:14.279Z,6.30
2023-03-26T21:42:46.403Z,6.24
2023-03-26T21:45:18.157Z,6.22
2023-03-26T21:47:50.027Z,6.25
2023-03-26T21:50:22.161Z,6.15
2023-03-26T21:52:54.060Z,6.16
2023-03-26T21:55:25.847Z,6.06
2023-03-26T21:57:57.364Z,6.04
2023-03-26T22:00:42.747Z,5.95
2023-03-26T22:03:15.828Z,5.96
2023-03-26T22:05:47.486Z,5.99
2023-03-26T22:08:19.358Z,5.96
2023-03-26T22:10:51.136Z,5.91
2023-03-26T22:13:22.962Z,5.90
2023-03-26T22:15:54.497Z,5.85
2023-03-26T22:18:30.487Z,5.84
2023-03-26T22:21:02.046Z,5.81
2023-03-26T22:23:38.588Z,5.80
2023-03-26T22:26:10.110Z,5.77
2023-03-26T22:28:41.818Z,5.70
2023-03-26T22:31:13.408Z,5.64
2023-03-26T22:33:45.379Z,5.53
2023-03-26T22:36:22.346Z,5.48
2023-03-26T22:38:55.172Z,5.31
2023-03-26T22:41:27.170Z,5.28
2023-03-26T22:44:09.407Z,5.21
2023-03-26T22:46:51.384Z,5.23
2023-03-26T22:49:26.420Z,5.17
2023-03-26T22:51:57.919Z,5.21
2023-03-26T22:54:29.773Z,5.11
2023-03-26T22:57:01.703Z,5.15
2023-03-26T22:59:33.951Z,5.09
2023-03-26T23:02:06.099Z,5.05
2023-03-26T23:04:39.014Z,5.09
2023-03-26T23:07:10.567Z,5.06
2023-03-26T23:09:42.406Z,5.11
2023-03-26T23:12:13.958Z,5.07
2023-03-26T23:14:45.655Z,4.96
2023-03-26T23:17:17.564Z,4.92
2023-03-26T23:19:49.679Z,4.89
2023-03-26T23:22:21.457Z,4.89
2023-03-26T23:24:53.692Z,4.76
2023-03-26T23:27:25.342Z,4.82
2023-03-26T23:29:56.909Z,4.76
2023-03-26T23:32:28.558Z,4.78
2023-03-26T23:35:00.227Z,4.76
2023-03-26T23:37:34.877Z,4.74
2023-03-26T23:40:10.438Z,4.76
2023-03-26T23:42:42.630Z,4.72
2023-03-26T23:45:14.218Z,4.71
2023-03-26T23:47:46.657Z,4.65
2023-03-26T23:50:18.533Z,4.58
2023-03-26T23:52:50.296Z,4.59
2023-03-26T23:55:22.235Z,4.51
2023-03-26T23:57:54.303Z,4.53
